MMHO/HMO METAR and TAF weather

Enter ICAO airport designator
Station Type Date Time Source
MMHO METAR 2021/07/30 07:46 UTC NOAA

MMHO 300746Z 00000KT 10SM BKN070 OVC200 31/22 A2989 RMK 8/063 BINOVC


Station Type Date Time Source
MMHO Decoded METAR 2021/07/30 07:46 UTC NOAA

Hermosillo, Son., Mexico (MMHO) 29-04N 110-57W
Jul 30, 2021 - 03:46 AM EDT / 2021.07.30 0746 UTC
Wind: Calm:0
Visibility: 10 mile(s):0
Sky conditions: overcast
Temperature: 87 F (31 C)
Heat index: 92.3 F (33.5 C):1
Dew Point: 71 F (22 C)
Relative Humidity: 58%
Pressure (altimeter): 29.89 in. Hg (1012 hPa)
ob: MMHO 300746Z 00000KT 10SM BKN070 OVC200 31/22 A2989 RMK 8/063 BINOVC
cycle: 8

Station Type Date Time Source
MMHO TAF 2021/07/30 06:24 UTC NOAA

TAF MMHO 300317Z 3006/3106 22010KT P6SM SCT030 BKN080 BKN250
TEMPO 3006/3009 4SM TSRA BKN030CB
FM301800 18010KT P6SM SCT030 BKN100 BKN250
FM310500 17005KT P6SM SCT030 BKN250

Example: see airport list